createdAt,value
2023-03-02T00:03:38.055Z,5.90
2023-03-02T00:07:43.073Z,5.96
2023-03-02T00:11:46.832Z,5.98
2023-03-02T00:15:50.423Z,5.99
2023-03-02T00:19:53.780Z,5.98
2023-03-02T00:23:59.469Z,5.96
2023-03-02T00:28:02.332Z,5.95
2023-03-02T00:32:06.616Z,5.94
2023-03-02T00:36:17.360Z,5.94
2023-03-02T00:40:21.638Z,5.93
2023-03-02T00:44:24.861Z,5.91
2023-03-02T00:48:27.775Z,5.86
2023-03-02T00:52:31.391Z,5.83
2023-03-02T00:56:36.005Z,5.77
2023-03-02T01:00:39.280Z,5.70
2023-03-02T01:04:44.865Z,5.62
2023-03-02T01:08:47.790Z,5.56
2023-03-02T01:12:52.499Z,5.50
2023-03-02T01:16:55.697Z,5.44
2023-03-02T01:21:06.483Z,5.39
2023-03-02T01:25:09.581Z,5.29
2023-03-02T01:29:14.162Z,5.26
2023-03-02T01:33:17.131Z,5.21
2023-03-02T01:37:21.117Z,5.15
2023-03-02T01:41:24.017Z,5.13
2023-03-02T01:45:52.291Z,5.10
2023-03-02T01:49:59.638Z,5.07
2023-03-02T01:54:08.561Z,4.99
2023-03-02T01:58:18.094Z,4.96
2023-03-02T02:02:22.867Z,4.99
2023-03-02T02:06:27.705Z,4.99
2023-03-02T02:10:32.566Z,4.95
2023-03-02T02:14:35.456Z,4.91
2023-03-02T02:19:02.601Z,4.91
2023-03-02T02:23:20.669Z,4.87
2023-03-02T02:27:30.281Z,4.79
2023-03-02T02:31:38.910Z,4.82
2023-03-02T02:35:43.595Z,4.77
2023-03-02T02:39:49.153Z,4.76
2023-03-02T02:43:54.140Z,4.72
2023-03-02T02:47:58.193Z,4.70
2023-03-02T02:52:01.506Z,4.77
2023-03-02T02:56:07.926Z,4.78
2023-03-02T03:00:20.577Z,4.72
2023-03-02T03:04:25.647Z,4.84
2023-03-02T03:08:53.719Z,4.88
2023-03-02T03:12:57.221Z,4.90
2023-03-02T03:17:04.566Z,4.92
2023-03-02T03:21:07.769Z,4.97
2023-03-02T03:25:16.252Z,4.99
2023-03-02T03:29:20.297Z,5.00
2023-03-02T03:33:24.821Z,5.04
2023-03-02T03:37:28.002Z,5.05
2023-03-02T03:41:31.300Z,5.07
2023-03-02T03:45:34.439Z,5.08
2023-03-02T03:49:39.528Z,5.09
2023-03-02T03:53:42.696Z,5.10
2023-03-02T03:57:47.515Z,5.11
2023-03-02T04:01:53.256Z,5.09
2023-03-02T04:05:57.690Z,5.06
2023-03-02T04:10:04.035Z,5.04
2023-03-02T04:14:08.461Z,5.01
2023-03-02T04:18:11.769Z,4.99
2023-03-02T04:22:16.711Z,4.96
2023-03-02T04:26:19.777Z,4.94
2023-03-02T04:30:27.200Z,4.92
2023-03-02T04:34:30.163Z,4.87
2023-03-02T04:38:35.135Z,4.86
2023-03-02T04:42:38.333Z,4.82
2023-03-02T04:46:44.859Z,4.79
2023-03-02T04:50:47.920Z,4.77
2023-03-02T04:54:53.100Z,4.74
2023-03-02T04:58:56.641Z,4.72
2023-03-02T05:03:00.003Z,4.69
2023-03-02T05:07:03.150Z,4.68
2023-03-02T05:11:09.322Z,4.68
2023-03-02T05:15:13.111Z,4.68
2023-03-02T05:19:16.418Z,4.68
2023-03-02T05:23:25.829Z,4.66
2023-03-02T05:27:30.782Z,4.65
2023-03-02T05:31:36.229Z,4.62
2023-03-02T05:35:39.924Z,4.58
2023-03-02T05:39:42.818Z,4.54
2023-03-02T05:43:47.890Z,4.54
2023-03-02T05:47:50.973Z,4.50
2023-03-02T05:51:54.333Z,4.50
2023-03-02T05:55:57.478Z,4.48
2023-03-02T06:00:03.072Z,4.47
2023-03-02T06:04:06.480Z,4.47
2023-03-02T06:08:10.845Z,4.48
2023-03-02T06:12:13.792Z,4.50
2023-03-02T06:16:18.400Z,4.55
2023-03-02T06:20:21.585Z,4.58
2023-03-02T06:24:24.721Z,4.60
2023-03-02T06:28:28.400Z,4.64
2023-03-02T06:32:34.623Z,4.74
2023-03-02T06:36:39.081Z,4.86
2023-03-02T06:40:42.010Z,4.99
2023-03-02T06:44:45.182Z,5.12
2023-03-02T06:48:49.768Z,5.27
2023-03-02T06:52:53.422Z,5.40
2023-03-02T06:56:58.591Z,5.55
2023-03-02T07:01:01.880Z,5.69
2023-03-02T07:05:07.650Z,5.84
2023-03-02T07:09:11.201Z,6.06
2023-03-02T07:13:14.141Z,6.33
2023-03-02T07:17:17.392Z,6.64
2023-03-02T07:21:22.356Z,6.95
2023-03-02T07:25:25.820Z,7.26
2023-03-02T07:29:28.802Z,7.57
2023-03-02T07:33:32.066Z,7.82
2023-03-02T07:37:36.882Z,8.05
2023-03-02T07:41:39.831Z,8.24
2023-03-02T07:45:42.999Z,8.38
2023-03-02T07:49:45.952Z,8.51
2023-03-02T07:53:50.504Z,8.67
2023-03-02T07:57:56.389Z,8.85
2023-03-02T08:02:00.384Z,9.05
2023-03-02T08:06:07.047Z,9.27
2023-03-02T08:10:13.557Z,9.47
2023-03-02T08:14:16.655Z,9.72
2023-03-02T08:18:19.997Z,9.98
2023-03-02T08:22:22.963Z,10.21
2023-03-02T08:26:28.353Z,10.42
2023-03-02T08:30:31.368Z,10.60
2023-03-02T08:34:35.837Z,10.79
2023-03-02T08:38:38.885Z,10.95
2023-03-02T08:42:43.413Z,11.13
2023-03-02T08:46:46.523Z,11.30
2023-03-02T08:50:56.804Z,11.45
2023-03-02T08:54:59.673Z,11.61
2023-03-02T08:59:07.222Z,11.78
2023-03-02T09:03:10.121Z,11.97
2023-03-02T09:07:15.676Z,12.12
2023-03-02T09:11:25.164Z,12.26
2023-03-02T09:15:29.865Z,12.35
2023-03-02T09:19:43.266Z,12.49
2023-03-02T09:23:47.731Z,12.60
2023-03-02T09:27:50.655Z,12.72
2023-03-02T09:32:10.179Z,12.88
2023-03-02T09:36:19.824Z,13.01
2023-03-02T09:40:26.670Z,13.10
2023-03-02T09:45:03.157Z,13.24
2023-03-02T09:49:26.260Z,13.37
2023-03-02T09:53:45.672Z,13.54
2023-03-02T09:57:49.121Z,13.65
2023-03-02T10:01:57.417Z,13.76
2023-03-02T10:06:02.354Z,13.86
2023-03-02T10:10:19.125Z,13.97
2023-03-02T10:14:26.226Z,14.07
2023-03-02T10:18:35.499Z,14.13
2023-03-02T10:22:45.577Z,14.22
2023-03-02T10:26:51.985Z,14.31
2023-03-02T10:30:59.992Z,14.46
2023-03-02T10:35:14.830Z,14.57
2023-03-02T10:39:20.967Z,14.70
2023-03-02T10:43:32.742Z,14.78
2023-03-02T10:47:36.940Z,14.87
2023-03-02T10:51:39.996Z,14.96
2023-03-02T10:55:50.398Z,15.07
2023-03-02T10:59:55.126Z,15.16
2023-03-02T11:04:00.866Z,15.22
2023-03-02T11:08:06.380Z,15.28
2023-03-02T11:12:18.292Z,15.36
2023-03-02T11:16:28.565Z,15.42
2023-03-02T11:20:34.820Z,15.50
2023-03-02T11:24:43.101Z,15.54
2023-03-02T11:28:55.005Z,15.60
2023-03-02T11:33:04.679Z,15.73
2023-03-02T11:37:19.311Z,15.91
2023-03-02T11:41:30.086Z,16.02
2023-03-02T11:45:38.256Z,16.16
2023-03-02T11:49:45.394Z,16.22
2023-03-02T11:53:53.424Z,16.35
2023-03-02T12:02:15.142Z,16.63
2023-03-02T12:06:38.691Z,16.75
2023-03-02T12:10:46.956Z,16.80
2023-03-02T12:14:49.936Z,16.80
2023-03-02T12:18:55.254Z,16.82
2023-03-02T12:23:10.021Z,16.84
2023-03-02T12:27:27.233Z,16.83
2023-03-02T12:31:45.788Z,16.74
2023-03-02T12:35:57.984Z,16.68
2023-03-02T12:40:31.132Z,16.64
2023-03-02T12:44:45.081Z,16.72
2023-03-02T12:48:54.151Z,16.77
2023-03-02T12:53:04.824Z,16.75
2023-03-02T12:57:15.221Z,16.77
2023-03-02T13:01:23.674Z,16.76
2023-03-02T13:05:29.146Z,16.75
2023-03-02T13:09:34.410Z,16.71
2023-03-02T13:13:40.337Z,16.75
2023-03-02T13:17:43.982Z,16.75
2023-03-02T13:21:47.207Z,16.80
2023-03-02T13:25:54.203Z,16.84
2023-03-02T13:29:57.965Z,16.87
2023-03-02T13:34:01.597Z,16.92
2023-03-02T13:38:07.340Z,16.98
2023-03-02T13:42:36.906Z,17.05
2023-03-02T13:46:42.091Z,17.12
2023-03-02T13:50:54.976Z,17.22
2023-03-02T13:54:59.002Z,17.26
2023-03-02T13:59:04.308Z,17.31
2023-03-02T14:03:19.191Z,17.33
2023-03-02T14:07:22.226Z,17.34
2023-03-02T14:11:25.376Z,17.36
2023-03-02T14:15:30.294Z,17.37
2023-03-02T14:19:33.298Z,17.37
2023-03-02T14:23:36.697Z,17.35
2023-03-02T14:27:40.762Z,17.31
2023-03-02T14:31:45.305Z,17.25
2023-03-02T14:35:49.464Z,17.18
2023-03-02T14:39:55.657Z,17.14
2023-03-02T14:43:58.656Z,17.09
2023-03-02T14:48:03.464Z,17.08
2023-03-02T14:52:10.289Z,17.08
2023-03-02T14:56:13.754Z,17.08
2023-03-02T15:00:17.731Z,17.03
2023-03-02T15:04:22.539Z,16.94
2023-03-02T15:08:25.573Z,16.80
2023-03-02T15:12:29.228Z,16.63
2023-03-02T15:16:32.238Z,16.47
2023-03-02T15:20:37.277Z,16.29
2023-03-02T15:24:40.327Z,16.18
2023-03-02T15:28:46.075Z,16.01
2023-03-02T15:32:49.269Z,15.88
2023-03-02T15:36:54.049Z,15.70
2023-03-02T15:40:57.005Z,15.53
2023-03-02T15:45:00.632Z,15.40
2023-03-02T15:49:03.609Z,15.26
2023-03-02T15:53:08.475Z,15.12
2023-03-02T15:57:11.646Z,14.99
2023-03-02T16:01:17.042Z,14.84
2023-03-02T16:05:20.107Z,14.70
2023-03-02T16:09:26.237Z,14.55
2023-03-02T16:13:30.463Z,14.33
2023-03-02T16:17:33.712Z,14.15
2023-03-02T16:21:36.767Z,13.92
2023-03-02T16:25:44.002Z,13.72
2023-03-02T16:29:47.041Z,13.52
2023-03-02T16:33:53.239Z,13.36
2023-03-02T16:37:56.146Z,13.18
2023-03-02T16:42:01.430Z,12.98
2023-03-02T16:46:04.573Z,12.80
2023-03-02T16:50:09.502Z,12.60
2023-03-02T16:54:17.239Z,12.45
2023-03-02T16:58:22.776Z,12.27
2023-03-02T17:02:25.661Z,12.13
2023-03-02T17:06:30.114Z,12.02
2023-03-02T17:10:33.469Z,11.87
2023-03-02T17:14:38.638Z,11.77
2023-03-02T17:18:46.713Z,11.63
2023-03-02T17:22:51.512Z,11.50
2023-03-02T17:26:54.446Z,11.41
2023-03-02T17:31:03.442Z,11.23
2023-03-02T17:35:09.421Z,11.19
2023-03-02T17:39:13.033Z,11.05
2023-03-02T17:43:16.469Z,10.94
2023-03-02T17:47:21.563Z,10.83
2023-03-02T17:51:25.848Z,10.68
2023-03-02T17:55:29.802Z,10.55
2023-03-02T17:59:32.953Z,10.42
2023-03-02T18:03:40.339Z,10.35
2023-03-02T18:07:43.498Z,10.24
2023-03-02T18:11:47.175Z,10.14
2023-03-02T18:15:50.124Z,10.05
2023-03-02T18:19:54.800Z,9.97
2023-03-02T18:23:58.961Z,9.88
2023-03-02T18:28:02.889Z,9.79
2023-03-02T18:32:06.022Z,9.70
2023-03-02T18:36:12.201Z,9.53
2023-03-02T18:40:15.675Z,9.47
2023-03-02T18:44:20.693Z,9.36
2023-03-02T18:48:23.695Z,9.23
2023-03-02T18:52:28.471Z,9.16
2023-03-02T18:56:31.489Z,9.09
2023-03-02T19:00:35.766Z,9.05
2023-03-02T19:04:38.859Z,9.02
2023-03-02T19:08:44.087Z,9.00
2023-03-02T19:12:47.019Z,8.92
2023-03-02T19:16:50.271Z,8.92
2023-03-02T19:20:54.417Z,8.87
2023-03-02T19:24:59.028Z,8.81
2023-03-02T19:29:01.974Z,8.74
2023-03-02T19:33:07.894Z,8.68
2023-03-02T19:37:10.867Z,8.63
2023-03-02T19:41:19.222Z,8.56
2023-03-02T19:45:27.442Z,8.50
2023-03-02T19:49:30.935Z,8.44
2023-03-02T19:53:34.717Z,8.36
2023-03-02T19:57:43.178Z,8.22
2023-03-02T20:01:47.882Z,8.15
2023-03-02T20:05:51.617Z,8.07
2023-03-02T20:09:54.723Z,7.91
2023-03-02T20:14:02.720Z,7.91
2023-03-02T20:18:06.382Z,7.83
2023-03-02T20:22:11.704Z,7.74
2023-03-02T20:26:14.750Z,7.66
2023-03-02T20:30:24.824Z,7.57
2023-03-02T20:34:27.781Z,7.47
2023-03-02T20:38:34.016Z,7.38
2023-03-02T20:42:37.061Z,7.31
2023-03-02T20:46:44.392Z,7.27
2023-03-02T20:50:47.387Z,7.25
2023-03-02T20:54:51.219Z,7.22
2023-03-02T20:58:54.396Z,7.20
2023-03-02T21:02:59.508Z,7.16
2023-03-02T21:07:02.551Z,7.15
2023-03-02T21:15:28.322Z,7.06
2023-03-02T21:19:34.966Z,7.01
2023-03-02T21:23:38.217Z,6.95
2023-03-02T21:27:45.153Z,6.93
2023-03-02T21:31:48.250Z,6.90
2023-03-02T21:35:53.048Z,6.91
2023-03-02T21:39:55.975Z,6.88
2023-03-02T21:43:59.737Z,6.83
2023-03-02T21:48:03.110Z,6.78
2023-03-02T21:52:08.319Z,6.69
2023-03-02T21:56:20.751Z,6.61
2023-03-02T22:00:26.568Z,6.56
2023-03-02T22:04:29.736Z,6.50
2023-03-02T22:08:35.859Z,6.44
2023-03-02T22:12:38.840Z,6.38
2023-03-02T22:16:45.880Z,6.35
2023-03-02T22:20:50.869Z,6.30
2023-03-02T22:24:55.877Z,6.26
2023-03-02T22:29:09.176Z,6.20
2023-03-02T22:33:21.371Z,6.14
2023-03-02T22:37:26.683Z,6.06
2023-03-02T22:41:31.225Z,5.97
2023-03-02T22:45:34.108Z,5.86
2023-03-02T22:49:58.000Z,5.76
2023-03-02T22:54:01.931Z,5.65
2023-03-02T22:58:28.667Z,5.56
2023-03-02T23:02:31.833Z,5.49
2023-03-02T23:06:40.251Z,5.42
2023-03-02T23:10:43.605Z,5.37
2023-03-02T23:14:49.925Z,5.37
2023-03-02T23:18:55.073Z,5.39
2023-03-02T23:22:58.809Z,5.47
2023-03-02T23:27:02.049Z,5.54
2023-03-02T23:31:07.871Z,5.62
2023-03-02T23:35:11.376Z,5.70
2023-03-02T23:39:14.761Z,5.73
2023-03-02T23:43:17.629Z,5.74
2023-03-02T23:47:22.678Z,5.72
2023-03-02T23:51:26.820Z,5.67
2023-03-02T23:55:30.800Z,5.60
